createdAt,value
2018-07-26T00:00:38.034Z,76.63
2018-07-26T00:01:38.069Z,76.53
2018-07-26T00:02:38.079Z,76.92
2018-07-26T00:03:38.106Z,76.92
2018-07-26T00:04:38.127Z,78.33
2018-07-26T00:05:38.144Z,79.00
2018-07-26T00:06:38.178Z,80.06
2018-07-26T00:07:38.192Z,79.39
2018-07-26T00:08:38.223Z,80.31
2018-07-26T00:09:38.236Z,80.99
2018-07-26T00:10:38.263Z,81.81
2018-07-26T00:11:38.285Z,81.04
2018-07-26T00:12:38.311Z,81.47
2018-07-26T00:13:38.334Z,80.79
2018-07-26T00:14:38.349Z,80.22
2018-07-26T00:15:38.371Z,80.89
2018-07-26T00:16:38.402Z,81.14
2018-07-26T00:17:38.422Z,81.18
2018-07-26T00:18:38.457Z,81.43
2018-07-26T00:19:38.463Z,80.94
2018-07-26T00:20:38.483Z,80.89
2018-07-26T00:21:38.559Z,81.09
2018-07-26T00:22:38.542Z,81.27
2018-07-26T00:23:38.573Z,79.74
2018-07-26T00:24:38.575Z,80.22
2018-07-26T00:25:38.602Z,79.25
2018-07-26T00:26:38.633Z,78.71
2018-07-26T00:27:38.700Z,78.42
2018-07-26T00:28:38.670Z,77.50
2018-07-26T00:29:38.694Z,77.69
2018-07-26T00:30:38.725Z,76.82
2018-07-26T00:31:38.732Z,77.88
2018-07-26T00:32:38.760Z,77.59
2018-07-26T00:33:38.775Z,77.69
2018-07-26T00:34:38.803Z,77.01
2018-07-26T00:35:38.819Z,78.03
2018-07-26T00:36:38.870Z,78.03
2018-07-26T00:37:38.867Z,77.84
2018-07-26T00:38:38.886Z,79.83
2018-07-26T00:39:38.911Z,79.83
2018-07-26T00:40:38.945Z,81.33
2018-07-26T00:41:38.951Z,81.43
2018-07-26T00:42:39.002Z,81.91
2018-07-26T00:43:39.002Z,82.59
2018-07-26T00:44:39.019Z,81.27
2018-07-26T00:45:39.045Z,80.89
2018-07-26T00:46:39.069Z,79.74
2018-07-26T00:47:39.136Z,80.60
2018-07-26T00:48:39.160Z,79.44
2018-07-26T00:49:39.130Z,80.02
2018-07-26T00:50:39.152Z,80.22
2018-07-26T00:51:39.176Z,80.02
2018-07-26T00:52:39.209Z,79.19
2018-07-26T00:53:39.224Z,80.94
2018-07-26T00:54:39.251Z,81.04
2018-07-26T00:55:39.263Z,81.81
2018-07-26T00:56:39.300Z,81.81
2018-07-26T00:57:39.332Z,81.81
2018-07-26T00:58:39.342Z,81.91
2018-07-26T00:59:39.366Z,80.89
2018-07-26T01:00:39.375Z,80.31
2018-07-26T01:01:39.417Z,81.24
2018-07-26T01:02:39.453Z,82.49
2018-07-26T01:03:39.451Z,81.47
2018-07-26T01:04:39.469Z,81.72
2018-07-26T01:05:39.493Z,82.20
2018-07-26T01:06:39.508Z,80.79
2018-07-26T01:07:39.539Z,81.24
2018-07-26T01:08:39.556Z,81.76
2018-07-26T01:09:39.622Z,81.14
2018-07-26T01:10:39.596Z,82.39
2018-07-26T01:11:39.624Z,82.01
2018-07-26T01:12:39.644Z,82.97
2018-07-26T01:13:39.669Z,82.10
2018-07-26T01:14:39.682Z,81.14
2018-07-26T01:15:39.714Z,82.29
2018-07-26T01:16:39.740Z,81.52
2018-07-26T01:17:39.764Z,80.85
2018-07-26T01:18:39.778Z,82.10
2018-07-26T01:19:39.793Z,81.72
2018-07-26T01:20:39.834Z,81.33
2018-07-26T01:21:39.840Z,82.16
2018-07-26T01:22:39.857Z,83.12
2018-07-26T01:23:39.885Z,82.64
2018-07-26T01:24:39.905Z,83.51
2018-07-26T01:25:39.926Z,83.80
2018-07-26T01:26:39.950Z,84.09
2018-07-26T01:27:39.972Z,83.51
2018-07-26T01:28:39.988Z,82.59
2018-07-26T01:29:40.017Z,81.91
2018-07-26T01:30:40.040Z,81.96
2018-07-26T01:31:40.062Z,81.91
2018-07-26T01:32:40.083Z,82.01
2018-07-26T01:33:40.110Z,82.35
2018-07-26T01:34:40.128Z,82.68
2018-07-26T01:35:40.149Z,82.45
2018-07-26T01:36:40.186Z,82.54
2018-07-26T01:37:40.206Z,82.68
2018-07-26T01:38:40.226Z,81.72
2018-07-26T01:39:40.235Z,80.60
2018-07-26T01:40:40.266Z,80.22
2018-07-26T01:41:40.283Z,80.41
2018-07-26T01:42:40.305Z,81.33
2018-07-26T01:43:40.325Z,81.77
2018-07-26T01:44:40.355Z,82.74
2018-07-26T01:45:40.362Z,82.93
2018-07-26T01:46:40.395Z,82.35
2018-07-26T01:47:40.417Z,83.03
2018-07-26T01:48:40.445Z,83.75
2018-07-26T01:49:40.452Z,84.62
2018-07-26T01:50:40.501Z,85.10
2018-07-26T01:51:40.503Z,85.49
2018-07-26T01:52:40.519Z,86.79
2018-07-26T01:53:40.554Z,87.08
2018-07-26T01:54:40.584Z,86.41
2018-07-26T01:55:40.606Z,86.31
2018-07-26T01:56:40.611Z,85.97
2018-07-26T01:57:40.639Z,85.83
2018-07-26T01:58:40.657Z,86.51
2018-07-26T01:59:40.669Z,87.66
2018-07-26T02:00:40.741Z,87.52
2018-07-26T02:01:40.769Z,87.27
2018-07-26T02:02:40.746Z,85.83
2018-07-26T02:03:40.787Z,86.60
2018-07-26T02:04:40.800Z,86.22
2018-07-26T02:05:40.809Z,86.16
2018-07-26T02:06:40.843Z,86.31
2018-07-26T02:07:40.847Z,86.69
2018-07-26T02:08:40.870Z,87.66
2018-07-26T02:09:40.920Z,87.46
2018-07-26T02:10:40.931Z,87.56
2018-07-26T02:11:40.934Z,87.56
2018-07-26T02:12:40.959Z,87.76
2018-07-26T02:13:40.979Z,86.99
2018-07-26T02:14:41.001Z,86.41
2018-07-26T02:15:41.020Z,86.60
2018-07-26T02:16:41.053Z,86.22
2018-07-26T02:17:41.072Z,87.52
2018-07-26T02:18:41.093Z,87.76
2018-07-26T02:19:41.111Z,88.04
2018-07-26T02:20:41.128Z,86.45
2018-07-26T02:21:41.149Z,84.95
2018-07-26T02:22:41.173Z,84.81
2018-07-26T02:23:41.203Z,85.10
2018-07-26T02:24:41.223Z,85.68
2018-07-26T02:25:41.236Z,85.39
2018-07-26T02:26:41.256Z,85.58
2018-07-26T02:27:41.277Z,84.72
2018-07-26T02:28:41.307Z,83.70
2018-07-26T02:29:41.345Z,83.66
2018-07-26T02:30:41.362Z,84.66
2018-07-26T02:31:41.379Z,84.05
2018-07-26T02:32:41.393Z,83.99
2018-07-26T02:33:41.419Z,83.75
2018-07-26T02:34:41.433Z,84.18
2018-07-26T02:35:41.456Z,83.51
2018-07-26T02:36:41.476Z,82.54
2018-07-26T02:37:41.521Z,82.59
2018-07-26T02:38:41.528Z,82.49
2018-07-26T02:39:41.551Z,81.62
2018-07-26T02:40:41.563Z,81.04
2018-07-26T02:41:41.586Z,81.43
2018-07-26T02:42:41.616Z,81.52
2018-07-26T02:43:41.625Z,82.06
2018-07-26T02:44:41.653Z,82.74
2018-07-26T02:45:41.670Z,82.54
2018-07-26T02:46:41.692Z,82.45
2018-07-26T02:47:41.714Z,82.35
2018-07-26T02:48:41.750Z,82.01
2018-07-26T02:49:41.761Z,81.68
2018-07-26T02:50:41.781Z,81.81
2018-07-26T02:51:41.813Z,81.24
2018-07-26T02:52:41.834Z,81.04
2018-07-26T02:53:41.851Z,81.62
2018-07-26T02:54:41.868Z,81.62
2018-07-26T02:55:41.896Z,81.14
2018-07-26T02:56:41.942Z,80.37
2018-07-26T02:57:41.944Z,81.14
2018-07-26T02:58:41.955Z,81.91
2018-07-26T02:59:41.994Z,82.45
2018-07-26T03:00:42.004Z,84.14
2018-07-26T03:01:42.017Z,84.72
2018-07-26T03:02:42.047Z,85.25
2018-07-26T03:03:42.065Z,86.75
2018-07-26T03:04:42.117Z,87.18
2018-07-26T03:05:42.105Z,87.62
2018-07-26T03:06:42.155Z,88.19
2018-07-26T03:07:42.167Z,88.19
2018-07-26T03:08:42.187Z,88.48
2018-07-26T03:09:42.202Z,89.25
2018-07-26T03:10:42.220Z,89.25
2018-07-26T03:11:42.233Z,89.06
2018-07-26T03:12:42.265Z,90.07
2018-07-26T03:13:42.321Z,90.31
2018-07-26T03:14:42.306Z,90.21
2018-07-26T03:15:42.334Z,89.35
2018-07-26T03:16:42.351Z,89.25
2018-07-26T03:17:42.365Z,88.96
2018-07-26T03:18:42.389Z,89.64
2018-07-26T03:19:42.415Z,90.21
2018-07-26T03:20:42.437Z,90.02
2018-07-26T03:21:42.456Z,90.31
2018-07-26T03:22:42.473Z,89.64
2018-07-26T03:23:42.496Z,90.02
2018-07-26T03:24:42.525Z,89.83
2018-07-26T03:25:42.556Z,90.21
2018-07-26T03:26:42.614Z,90.26
2018-07-26T03:27:42.588Z,89.98
2018-07-26T03:28:42.608Z,89.83
2018-07-26T03:29:42.634Z,90.12
2018-07-26T03:30:42.646Z,89.92
2018-07-26T03:31:42.681Z,90.07
2018-07-26T03:32:42.691Z,90.84
2018-07-26T03:33:42.717Z,90.12
2018-07-26T03:34:42.742Z,89.54
2018-07-26T03:35:42.757Z,89.25
2018-07-26T03:36:42.777Z,90.02
2018-07-26T03:37:42.801Z,90.79
2018-07-26T03:38:42.817Z,90.59
2018-07-26T03:39:42.841Z,89.64
2018-07-26T03:40:42.879Z,88.62
2018-07-26T03:41:42.889Z,88.81
2018-07-26T03:42:42.907Z,89.35
2018-07-26T03:43:42.935Z,89.98
2018-07-26T03:44:42.951Z,91.13
2018-07-26T03:45:42.973Z,92.19
2018-07-26T03:46:43.009Z,91.99
2018-07-26T03:47:43.021Z,91.80
2018-07-26T03:48:43.034Z,91.42
2018-07-26T03:49:43.071Z,91.61
2018-07-26T03:50:43.085Z,89.64
2018-07-26T03:51:43.107Z,87.46
2018-07-26T03:52:43.129Z,86.89
2018-07-26T03:53:43.141Z,87.27
2018-07-26T03:54:43.163Z,87.85
2018-07-26T03:55:43.199Z,88.48
2018-07-26T03:56:43.210Z,88.67
2018-07-26T03:57:43.258Z,89.44
2018-07-26T03:58:43.256Z,89.78
2018-07-26T03:59:43.294Z,89.98
2018-07-26T04:00:43.351Z,90.07
2018-07-26T04:01:43.319Z,90.31
2018-07-26T04:02:43.345Z,90.17
2018-07-26T04:03:43.360Z,91.52
2018-07-26T04:04:43.399Z,91.99
2018-07-26T04:05:43.423Z,91.99
2018-07-26T04:06:43.418Z,90.31
2018-07-26T04:07:43.450Z,88.81
2018-07-26T04:08:43.467Z,88.24
2018-07-26T04:09:43.496Z,88.53
2018-07-26T04:10:43.513Z,88.33
2018-07-26T04:11:43.532Z,88.77
2018-07-26T04:12:43.559Z,88.62
2018-07-26T04:13:43.594Z,88.24
2018-07-26T04:14:43.607Z,88.33
2018-07-26T04:15:43.615Z,88.14
2018-07-26T04:16:43.638Z,87.32
2018-07-26T04:17:43.674Z,86.21
2018-07-26T04:18:43.679Z,84.66
2018-07-26T04:19:43.719Z,84.28
2018-07-26T04:20:43.723Z,83.61
2018-07-26T04:21:43.753Z,83.89
2018-07-26T04:22:43.775Z,83.45
2018-07-26T04:23:43.791Z,82.49
2018-07-26T04:24:43.818Z,82.49
2018-07-26T04:25:43.841Z,82.93
2018-07-26T04:26:43.867Z,83.99
2018-07-26T04:27:43.885Z,84.56
2018-07-26T04:28:43.917Z,84.62
2018-07-26T04:29:43.940Z,85.68
2018-07-26T04:30:43.945Z,87.03
2018-07-26T04:31:44.011Z,87.27
2018-07-26T04:32:44.001Z,87.95
2018-07-26T04:33:44.011Z,88.04
2018-07-26T04:34:44.030Z,87.60
2018-07-26T04:35:44.069Z,86.65
2018-07-26T04:36:44.077Z,86.45
2018-07-26T04:37:44.109Z,85.97
2018-07-26T04:38:44.119Z,85.43
2018-07-26T04:39:44.137Z,84.56
2018-07-26T04:40:44.160Z,83.55
2018-07-26T04:41:44.188Z,81.85
2018-07-26T04:42:44.226Z,81.85
2018-07-26T04:43:44.224Z,82.20
2018-07-26T04:44:44.256Z,81.95
2018-07-26T04:45:44.268Z,81.85
2018-07-26T04:46:44.302Z,82.49
2018-07-26T04:47:44.340Z,81.95
2018-07-26T04:48:44.336Z,81.41
2018-07-26T04:49:44.364Z,81.12
2018-07-26T04:50:44.390Z,80.93
2018-07-26T04:51:44.420Z,80.35
2018-07-26T04:52:44.481Z,80.45
2018-07-26T04:53:44.468Z,81.27
2018-07-26T04:54:44.557Z,82.62
2018-07-26T04:55:44.505Z,84.32
2018-07-26T04:56:44.514Z,85.38
2018-07-26T04:57:44.535Z,86.01
2018-07-26T04:58:44.572Z,86.88
2018-07-26T04:59:44.584Z,86.88
2018-07-26T05:00:44.607Z,86.78
2018-07-26T05:01:44.623Z,85.81
2018-07-26T05:02:44.653Z,82.38
2018-07-26T05:03:44.671Z,79.85
2018-07-26T05:04:44.697Z,76.64
2018-07-26T05:05:44.713Z,74.49
2018-07-26T05:06:44.737Z,72.44
2018-07-26T05:07:44.784Z,71.22
2018-07-26T05:08:44.802Z,69.31
2018-07-26T05:09:44.816Z,68.02
2018-07-26T05:10:44.840Z,64.62
2018-07-26T05:11:44.864Z,62.90
2018-07-26T05:12:44.893Z,61.77
2018-07-26T05:13:44.920Z,60.57
2018-07-26T05:14:44.937Z,61.08
2018-07-26T05:15:44.971Z,61.11
2018-07-26T05:16:44.987Z,59.69
2018-07-26T05:17:45.017Z,57.64
2018-07-26T05:18:45.050Z,56.79
2018-07-26T05:19:45.067Z,56.50
2018-07-26T05:20:45.096Z,56.47
2018-07-26T05:21:45.136Z,57.06
2018-07-26T05:22:45.152Z,56.89
2018-07-26T05:23:45.182Z,56.50
2018-07-26T05:24:45.214Z,55.94
2018-07-26T05:25:45.238Z,56.79
2018-07-26T05:26:45.280Z,56.50
2018-07-26T05:27:45.308Z,56.23
2018-07-26T05:28:45.320Z,56.50
2018-07-26T05:29:45.363Z,57.35
2018-07-26T05:30:45.383Z,57.64
2018-07-26T05:31:45.408Z,57.45
2018-07-26T05:32:45.433Z,57.54
2018-07-26T05:33:45.461Z,56.96
2018-07-26T05:34:45.493Z,56.79
2018-07-26T05:35:45.517Z,56.99
2018-07-26T05:36:45.573Z,56.70
2018-07-26T05:37:45.589Z,55.58
2018-07-26T05:38:45.610Z,54.02
2018-07-26T05:39:45.635Z,54.58
2018-07-26T05:40:45.665Z,55.72
2018-07-26T05:41:45.690Z,54.60
2018-07-26T05:42:45.735Z,53.36
2018-07-26T05:43:45.763Z,53.85
2018-07-26T05:44:45.803Z,52.80
2018-07-26T05:45:45.816Z,52.41
2018-07-26T05:46:45.844Z,52.51
2018-07-26T05:47:45.869Z,50.88
2018-07-26T05:48:45.912Z,50.61
2018-07-26T05:49:45.940Z,50.05
2018-07-26T05:50:45.976Z,50.24
2018-07-26T05:51:45.988Z,50.71
2018-07-26T05:52:46.029Z,50.05
2018-07-26T05:53:46.054Z,48.04
2018-07-26T05:54:46.102Z,48.09
2018-07-26T05:55:46.121Z,47.26
2018-07-26T05:56:46.143Z,50.12
2018-07-26T05:57:46.177Z,49.21
2018-07-26T05:58:46.211Z,48.16
2018-07-26T05:59:46.238Z,49.36
2018-07-26T06:00:46.281Z,50.22
2018-07-26T06:01:46.303Z,50.83
2018-07-26T06:02:46.338Z,50.17
2018-07-26T06:03:46.371Z,48.36
2018-07-26T06:04:46.392Z,48.82
2018-07-26T06:05:46.425Z,47.87
2018-07-26T06:06:46.468Z,47.62
2018-07-26T06:07:46.493Z,48.80
2018-07-26T06:08:46.513Z,49.02
2018-07-26T06:09:46.562Z,49.07
2018-07-26T06:10:46.589Z,46.62
2018-07-26T06:11:46.600Z,48.53
2018-07-26T06:12:46.646Z,48.72
2018-07-26T06:13:46.684Z,47.89
2018-07-26T06:14:46.701Z,48.65
2018-07-26T06:15:46.745Z,47.40
2018-07-26T06:16:46.774Z,46.63
2018-07-26T06:17:46.832Z,42.79
2018-07-26T06:18:46.827Z,41.53
2018-07-26T06:19:46.860Z,40.92
2018-07-26T06:20:46.889Z,42.94
2018-07-26T06:21:46.924Z,44.16
2018-07-26T06:22:46.948Z,45.51
2018-07-26T06:23:46.988Z,43.98
2018-07-26T06:24:47.009Z,43.79
2018-07-26T06:25:47.048Z,42.35
2018-07-26T06:26:47.071Z,40.80
2018-07-26T06:27:47.108Z,38.57
2018-07-26T06:28:47.137Z,38.18
2018-07-26T06:29:47.169Z,37.51
2018-07-26T06:30:47.210Z,36.63
2018-07-26T06:31:47.234Z,35.58
2018-07-26T06:32:47.277Z,35.12
2018-07-26T06:33:47.313Z,34.34
2018-07-26T06:34:47.336Z,34.05
2018-07-26T06:35:47.363Z,33.47
2018-07-26T06:36:47.397Z,33.39
2018-07-26T06:37:47.432Z,33.69
2018-07-26T06:38:47.461Z,33.67
2018-07-26T06:39:47.494Z,33.65
2018-07-26T06:40:47.525Z,34.01
2018-07-26T06:41:47.558Z,34.31
2018-07-26T06:42:47.591Z,34.94
2018-07-26T06:43:47.628Z,34.45
2018-07-26T06:44:47.653Z,33.57
2018-07-26T06:45:47.689Z,33.94
2018-07-26T06:46:47.721Z,38.40
2018-07-26T06:47:47.755Z,41.56
2018-07-26T06:48:47.780Z,41.35
2018-07-26T06:49:47.827Z,39.87
2018-07-26T06:50:47.840Z,40.23
2018-07-26T06:51:47.876Z,41.64
2018-07-26T06:52:47.914Z,42.43
2018-07-26T06:53:47.941Z,41.98
2018-07-26T06:54:47.974Z,40.64
2018-07-26T06:55:48.007Z,40.17
2018-07-26T06:56:48.053Z,38.93
2018-07-26T06:57:48.075Z,38.49
2018-07-26T06:58:48.108Z,36.27
2018-07-26T06:59:48.139Z,35.99
2018-07-26T07:00:48.239Z,35.12
2018-07-26T07:01:48.200Z,35.82
2018-07-26T07:02:48.241Z,35.44
2018-07-26T07:03:48.267Z,33.98
2018-07-26T07:04:48.302Z,33.69
2018-07-26T07:05:48.327Z,33.77
2018-07-26T07:06:48.373Z,33.57
2018-07-26T07:07:48.401Z,33.82
2018-07-26T07:08:48.429Z,35.76
2018-07-26T07:09:48.470Z,34.86
2018-07-26T07:10:48.508Z,33.59
2018-07-26T07:11:48.537Z,33.57
2018-07-26T07:12:48.582Z,36.16
2018-07-26T07:13:48.593Z,34.97
2018-07-26T07:14:48.631Z,32.64
2018-07-26T07:15:48.661Z,32.14
2018-07-26T07:16:48.699Z,33.04
2018-07-26T07:17:48.741Z,33.06
2018-07-26T07:18:48.767Z,31.91
2018-07-26T07:19:48.792Z,31.32
2018-07-26T07:20:48.831Z,31.05
2018-07-26T07:21:48.857Z,30.15
2018-07-26T07:22:48.890Z,30.05
2018-07-26T07:23:48.928Z,29.93
2018-07-26T07:24:48.980Z,28.76
2018-07-26T07:25:49.008Z,28.96
2018-07-26T07:26:49.025Z,28.77
2018-07-26T07:27:49.120Z,30.15
2018-07-26T07:28:49.105Z,31.79
2018-07-26T07:29:49.144Z,32.14
2018-07-26T07:30:49.164Z,30.55
2018-07-26T07:31:49.204Z,32.95
2018-07-26T07:32:49.225Z,33.13
2018-07-26T07:33:49.263Z,32.60
2018-07-26T07:34:49.307Z,30.38
2018-07-26T07:35:49.340Z,30.29
2018-07-26T07:36:49.365Z,30.29
2018-07-26T07:37:49.388Z,29.80
2018-07-26T07:38:49.425Z,30.43
2018-07-26T07:39:49.456Z,30.07
2018-07-26T07:40:49.498Z,31.11
2018-07-26T07:41:49.539Z,29.31
2018-07-26T07:42:49.564Z,28.89
2018-07-26T07:43:49.599Z,30.28
2018-07-26T07:44:49.628Z,29.47
2018-07-26T07:45:49.663Z,30.04
2018-07-26T07:46:49.714Z,29.94
2018-07-26T07:47:49.757Z,28.25
2018-07-26T07:48:49.771Z,26.88
2018-07-26T07:49:49.796Z,26.12
2018-07-26T07:50:49.836Z,25.81
2018-07-26T07:51:49.878Z,26.94
2018-07-26T07:52:49.945Z,27.17
2018-07-26T07:53:49.933Z,27.44
2018-07-26T07:54:49.964Z,26.37
2018-07-26T07:55:49.992Z,25.98
2018-07-26T07:56:50.044Z,24.92
2018-07-26T07:57:50.126Z,24.73
2018-07-26T07:58:50.103Z,25.11
2018-07-26T07:59:50.180Z,26.04
2018-07-26T08:00:50.164Z,26.09
2018-07-26T08:01:50.212Z,25.52
2018-07-26T08:02:50.229Z,25.62
2018-07-26T08:03:50.279Z,25.93
2018-07-26T08:04:50.293Z,25.52
2018-07-26T08:05:50.325Z,24.63
2018-07-26T08:06:50.402Z,23.56
2018-07-26T08:07:50.396Z,23.48
2018-07-26T08:08:50.472Z,24.34
2018-07-26T08:09:50.469Z,22.64
2018-07-26T08:10:50.507Z,22.55
2018-07-26T08:11:50.534Z,23.10
2018-07-26T08:12:50.565Z,23.67
2018-07-26T08:13:50.598Z,23.58
2018-07-26T08:14:50.634Z,23.56
2018-07-26T08:15:50.660Z,22.86
2018-07-26T08:16:50.696Z,23.56
2018-07-26T08:17:50.724Z,23.47
2018-07-26T08:18:50.759Z,22.95
2018-07-26T08:19:50.802Z,23.23
2018-07-26T08:20:50.827Z,23.45
2018-07-26T08:21:50.864Z,23.71
2018-07-26T08:22:50.900Z,24.12
2018-07-26T08:23:50.923Z,23.76
2018-07-26T08:24:50.959Z,22.20
2018-07-26T08:25:50.983Z,22.59
2018-07-26T08:26:51.016Z,23.36
2018-07-26T08:27:51.061Z,23.25
2018-07-26T08:28:51.085Z,23.46
2018-07-26T08:29:51.119Z,23.56
2018-07-26T08:30:51.148Z,22.99
2018-07-26T08:31:51.177Z,23.75
2018-07-26T08:32:51.215Z,24.90
2018-07-26T08:33:51.241Z,24.49
2018-07-26T08:34:51.277Z,24.89
2018-07-26T08:35:51.315Z,25.20
2018-07-26T08:36:51.333Z,23.66
2018-07-26T08:37:51.376Z,23.27
2018-07-26T08:38:51.402Z,23.55
2018-07-26T08:39:51.430Z,24.34
2018-07-26T08:40:51.459Z,24.79
2018-07-26T08:41:51.490Z,26.06
2018-07-26T08:42:51.519Z,26.45
2018-07-26T08:43:51.548Z,26.35
2018-07-26T08:44:51.581Z,27.98
2018-07-26T08:45:51.625Z,28.75
2018-07-26T08:46:51.643Z,28.75
2018-07-26T08:47:51.675Z,28.94
2018-07-26T08:48:51.751Z,29.60
2018-07-26T08:49:51.731Z,30.86
2018-07-26T08:50:51.769Z,30.26
2018-07-26T08:51:51.790Z,31.63
2018-07-26T08:52:51.818Z,30.27
2018-07-26T08:53:51.859Z,30.10
2018-07-26T08:54:51.870Z,30.26
2018-07-26T08:55:51.911Z,32.49
2018-07-26T08:56:51.943Z,32.23
2018-07-26T08:57:51.962Z,32.32
2018-07-26T08:58:52.009Z,32.69
2018-07-26T08:59:52.019Z,34.34
2018-07-26T09:00:52.067Z,33.54
2018-07-26T09:01:52.070Z,32.79
2018-07-26T09:02:52.099Z,33.08
2018-07-26T09:03:52.145Z,33.10
2018-07-26T09:04:52.163Z,32.51
2018-07-26T09:05:52.185Z,32.62
2018-07-26T09:06:52.210Z,32.90
2018-07-26T09:07:52.255Z,32.60
2018-07-26T09:08:52.282Z,32.23
2018-07-26T09:09:52.354Z,31.34
2018-07-26T09:10:52.346Z,32.59
2018-07-26T09:11:52.352Z,32.89
2018-07-26T09:12:52.390Z,32.29
2018-07-26T09:13:52.510Z,33.18
2018-07-26T09:14:52.439Z,33.28
2018-07-26T09:15:52.462Z,33.17
2018-07-26T09:16:52.496Z,33.86
2018-07-26T09:17:52.517Z,33.46
2018-07-26T09:18:52.549Z,33.08
2018-07-26T09:19:52.658Z,33.56
2018-07-26T09:20:52.600Z,34.11
2018-07-26T09:21:52.633Z,34.89
2018-07-26T09:22:52.682Z,34.90
2018-07-26T09:23:52.682Z,34.92
2018-07-26T09:24:52.731Z,34.43
2018-07-26T09:25:52.739Z,34.31
2018-07-26T09:26:52.764Z,34.03
2018-07-26T09:27:52.808Z,33.38
2018-07-26T09:28:52.869Z,33.28
2018-07-26T09:29:52.852Z,32.51
2018-07-26T09:30:52.889Z,31.44
2018-07-26T09:31:52.923Z,30.94
2018-07-26T09:32:53.006Z,32.59
2018-07-26T09:33:52.978Z,33.54
2018-07-26T09:34:52.979Z,33.34
2018-07-26T09:35:53.009Z,32.79
2018-07-26T09:36:53.039Z,33.07
2018-07-26T09:37:53.091Z,33.34
2018-07-26T09:38:53.096Z,34.00
2018-07-26T09:39:53.130Z,34.67
2018-07-26T09:40:53.151Z,33.92
2018-07-26T09:41:53.174Z,33.39
2018-07-26T09:42:53.202Z,33.41
2018-07-26T09:43:53.232Z,33.23
2018-07-26T09:44:53.282Z,31.84
2018-07-26T09:45:53.280Z,31.98
2018-07-26T09:46:53.327Z,31.69
2018-07-26T09:47:53.347Z,30.95
2018-07-26T09:48:53.367Z,32.33
2018-07-26T09:49:53.390Z,32.45
2018-07-26T09:50:53.423Z,32.24
2018-07-26T09:51:53.454Z,32.76
2018-07-26T09:52:53.478Z,32.17
2018-07-26T09:53:53.516Z,31.98
2018-07-26T09:54:53.584Z,31.10
2018-07-26T09:55:53.579Z,31.18
2018-07-26T09:56:53.593Z,31.28
2018-07-26T09:57:53.636Z,32.33
2018-07-26T09:58:53.643Z,32.23
2018-07-26T09:59:53.665Z,31.64
2018-07-26T10:00:53.694Z,32.33
2018-07-26T10:01:53.713Z,32.33
2018-07-26T10:02:53.743Z,32.64
2018-07-26T10:03:53.770Z,32.74
2018-07-26T10:04:53.798Z,33.05
2018-07-26T10:05:53.826Z,32.56
2018-07-26T10:06:53.896Z,32.90
2018-07-26T10:07:53.887Z,33.49
2018-07-26T10:08:53.905Z,33.22
2018-07-26T10:09:53.929Z,32.53
2018-07-26T10:10:53.973Z,31.97
2018-07-26T10:11:53.999Z,32.34
2018-07-26T10:12:54.012Z,31.77
2018-07-26T10:13:54.042Z,32.17
2018-07-26T10:14:54.066Z,32.36
2018-07-26T10:15:54.120Z,32.65
2018-07-26T10:16:54.126Z,32.33
2018-07-26T10:17:54.154Z,32.82
2018-07-26T10:18:54.170Z,32.43
2018-07-26T10:19:54.206Z,32.23
2018-07-26T10:20:54.231Z,32.84
2018-07-26T10:21:54.266Z,31.49
2018-07-26T10:22:54.289Z,31.41
2018-07-26T10:23:54.316Z,31.39
2018-07-26T10:24:54.347Z,31.29
2018-07-26T10:25:54.365Z,31.00
2018-07-26T10:26:54.401Z,31.48
2018-07-26T10:27:54.452Z,31.67
2018-07-26T10:28:54.452Z,31.28
2018-07-26T10:29:54.470Z,30.40
2018-07-26T10:30:54.495Z,31.16
2018-07-26T10:31:54.530Z,31.85
2018-07-26T10:32:54.560Z,31.64
2018-07-26T10:33:54.582Z,31.84
2018-07-26T10:34:54.608Z,31.28
2018-07-26T10:35:54.637Z,31.28
2018-07-26T10:36:54.662Z,31.07
2018-07-26T10:37:54.693Z,30.31
2018-07-26T10:38:54.722Z,29.52
2018-07-26T10:39:54.748Z,30.02
2018-07-26T10:40:54.769Z,30.00
2018-07-26T10:41:54.801Z,29.71
2018-07-26T10:42:54.823Z,30.40
2018-07-26T10:43:54.854Z,30.19
2018-07-26T10:44:54.879Z,30.19
2018-07-26T10:45:54.908Z,30.60
2018-07-26T10:46:54.932Z,29.93
2018-07-26T10:47:54.966Z,30.21
2018-07-26T10:48:54.997Z,30.49
2018-07-26T10:49:55.063Z,29.71
2018-07-26T10:50:55.051Z,30.02
2018-07-26T10:51:55.071Z,29.46
2018-07-26T10:52:55.095Z,29.44
2018-07-26T10:53:55.126Z,28.66
2018-07-26T10:54:55.162Z,29.14
2018-07-26T10:55:55.176Z,29.72
2018-07-26T10:56:55.214Z,30.00
2018-07-26T10:57:55.231Z,29.90
2018-07-26T10:58:55.269Z,29.99
2018-07-26T10:59:55.287Z,29.97
2018-07-26T11:00:55.313Z,29.10
2018-07-26T11:01:55.340Z,28.33
2018-07-26T11:02:55.380Z,28.51
2018-07-26T11:03:55.397Z,29.59
2018-07-26T11:04:55.426Z,29.87
2018-07-26T11:05:55.448Z,29.86
2018-07-26T11:06:55.472Z,29.89
2018-07-26T11:07:55.504Z,30.45
2018-07-26T11:08:55.535Z,31.02
2018-07-26T11:09:55.570Z,31.05
2018-07-26T11:10:55.583Z,30.85
2018-07-26T11:11:55.630Z,30.47
2018-07-26T11:12:55.641Z,30.10
2018-07-26T11:13:55.664Z,30.47
2018-07-26T11:14:55.743Z,30.19
2018-07-26T11:15:55.716Z,30.87
2018-07-26T11:16:55.748Z,29.79
2018-07-26T11:17:55.775Z,30.59
2018-07-26T11:18:55.870Z,29.71
2018-07-26T11:19:55.822Z,30.00
2018-07-26T11:20:55.857Z,29.99
2018-07-26T11:21:55.881Z,30.18
2018-07-26T11:22:55.909Z,29.90
2018-07-26T11:23:55.945Z,29.90
2018-07-26T11:24:55.966Z,29.90
2018-07-26T11:25:55.998Z,30.00
2018-07-26T11:26:56.038Z,29.89
2018-07-26T11:27:56.067Z,30.00
2018-07-26T11:28:56.090Z,30.02
2018-07-26T11:29:56.165Z,29.52
2018-07-26T11:30:56.129Z,29.44
2018-07-26T11:31:56.165Z,28.75
2018-07-26T11:32:56.188Z,28.47
2018-07-26T11:33:56.205Z,28.58
2018-07-26T11:34:56.228Z,28.10
2018-07-26T11:35:56.272Z,28.21
2018-07-26T11:36:56.291Z,27.23
2018-07-26T11:37:56.368Z,28.19
2018-07-26T11:38:56.358Z,28.10
2018-07-26T11:39:56.367Z,27.13
2018-07-26T11:40:56.417Z,27.61
2018-07-26T11:41:56.422Z,27.42
2018-07-26T11:42:56.449Z,27.22
2018-07-26T11:43:56.479Z,28.00
2018-07-26T11:44:56.509Z,27.34
2018-07-26T11:45:56.536Z,26.76
2018-07-26T11:46:56.572Z,27.70
2018-07-26T11:47:56.601Z,28.88
2018-07-26T11:48:56.627Z,29.76
2018-07-26T11:49:56.669Z,29.06
2018-07-26T11:50:56.683Z,28.75
2018-07-26T11:51:56.697Z,28.55
2018-07-26T11:52:56.729Z,28.66
2018-07-26T11:53:56.756Z,28.28
2018-07-26T11:54:56.790Z,27.70
2018-07-26T11:55:56.810Z,27.91
2018-07-26T11:56:56.849Z,27.91
2018-07-26T11:57:56.867Z,28.17
2018-07-26T11:58:56.899Z,29.25
2018-07-26T11:59:56.918Z,29.74
2018-07-26T12:00:56.948Z,29.85
2018-07-26T12:01:56.983Z,28.56
2018-07-26T12:02:57.010Z,28.68
2018-07-26T12:03:57.039Z,28.10
2018-07-26T12:04:57.067Z,28.40
2018-07-26T12:05:57.091Z,28.69
2018-07-26T12:06:57.114Z,28.69
2018-07-26T12:07:57.144Z,28.31
2018-07-26T12:08:57.175Z,27.52
2018-07-26T12:09:57.209Z,27.70
2018-07-26T12:10:57.225Z,28.68
2018-07-26T12:11:57.248Z,28.21
2018-07-26T12:12:57.287Z,28.68
2018-07-26T12:13:57.304Z,30.15
2018-07-26T12:14:57.375Z,29.06
2018-07-26T12:15:57.365Z,28.66
2018-07-26T12:16:57.385Z,28.77
2018-07-26T12:17:57.422Z,29.83
2018-07-26T12:18:57.448Z,29.92
2018-07-26T12:19:57.475Z,29.93
2018-07-26T12:20:57.503Z,30.02
2018-07-26T12:21:57.524Z,30.38
2018-07-26T12:22:57.566Z,31.87
2018-07-26T12:23:57.590Z,30.98
2018-07-26T12:24:57.608Z,30.62
2018-07-26T12:25:57.638Z,29.17
2018-07-26T12:26:57.696Z,28.59
2018-07-26T12:27:57.692Z,29.57
2018-07-26T12:28:57.726Z,30.03
2018-07-26T12:29:57.747Z,29.53
2018-07-26T12:30:57.791Z,29.53
2018-07-26T12:31:57.801Z,29.46
2018-07-26T12:32:57.835Z,29.06
2018-07-26T12:33:57.865Z,29.92
2018-07-26T12:34:57.897Z,30.21
2018-07-26T12:35:58.022Z,30.00
2018-07-26T12:36:57.961Z,29.34
2018-07-26T12:37:57.973Z,28.96
2018-07-26T12:38:58.001Z,29.16
2018-07-26T12:39:58.029Z,29.63
2018-07-26T12:40:58.052Z,30.02
2018-07-26T12:41:58.075Z,29.90
2018-07-26T12:42:58.105Z,29.72
2018-07-26T12:43:58.134Z,29.23
2018-07-26T12:44:58.156Z,29.83
2018-07-26T12:45:58.194Z,29.35
2018-07-26T12:46:58.213Z,28.47
2018-07-26T12:47:58.241Z,28.36
2018-07-26T12:48:58.278Z,28.74
2018-07-26T12:49:58.291Z,28.74
2018-07-26T12:50:58.322Z,28.16
2018-07-26T12:51:58.361Z,28.16
2018-07-26T12:52:58.390Z,28.55